Time;durP1;ratioP1;P1;durP2;ratioP2;P2;SDS_P1;SDS_P2;PMS_P1;PMS_P2;Temp;Humidity;BMP_temperature;BMP_pressure;BME280_temperature;BME280_humidity;BME280_pressure;Samples;Min_cycle;Max_cycle;Signal;HPM_P1;HPM_P2
2022/10/31 00:01:03;;;;;;;3.87;3.40;;;;;;;15.75;56.67;95076.22;4884168;29;20197;-86
2022/10/31 00:03:30;;;;;;;4.47;2.53;;;;;;;15.79;56.58;95080.09;4896540;29;20200;-85
2022/10/31 00:05:57;;;;;;;3.60;2.60;;;;;;;16.01;56.58;95116.53;4891889;29;20296;-86
2022/10/31 00:08:24;;;;;;;4.27;3.13;;;;;;;16.00;56.75;95117.50;4893752;29;20297;-88
2022/10/31 00:10:52;;;;;;;4.03;2.80;;;;;;;15.98;56.63;95120.25;4881823;29;20203;-86
2022/10/31 00:13:19;;;;;;;3.30;2.90;;;;;;;15.98;56.77;95117.69;4890736;29;20199;-86
2022/10/31 00:15:46;;;;;;;4.53;2.90;;;;;;;15.97;56.76;95120.41;4896859;29;20224;-84
2022/10/31 00:18:13;;;;;;;2.63;2.43;;;;;;;15.72;56.62;95073.19;4898089;29;20269;-85
2022/10/31 00:20:40;;;;;;;4.27;2.77;;;;;;;15.91;56.77;95105.59;4895923;29;20201;-86
2022/10/31 00:23:07;;;;;;;5.97;3.50;;;;;;;15.93;56.84;95114.78;4889626;29;20201;-85
2022/10/31 00:25:36;;;;;;;3.37;2.60;;;;;;;15.94;56.89;95121.56;4890473;29;20197;-86
2022/10/31 00:28:05;;;;;;;3.27;2.97;;;;;;;15.90;56.93;95120.25;4881131;29;20200;-88
2022/10/31 00:30:32;;;;;;;4.97;2.80;;;;;;;15.93;56.84;95114.78;4878247;29;20297;-89
2022/10/31 00:32:59;;;;;;;3.07;2.77;;;;;;;15.87;56.87;95105.09;4882313;29;20205;-85
2022/10/31 00:35:26;;;;;;;5.07;3.37;;;;;;;15.93;56.90;95113.94;4884533;29;20190;-88
2022/10/31 00:37:53;;;;;;;3.53;2.60;;;;;;;15.91;56.99;95115.91;4879393;29;20200;-89
2022/10/31 00:40:20;;;;;;;6.43;2.90;;;;;;;15.82;56.89;95096.22;4880852;29;20208;-84
2022/10/31 00:42:47;;;;;;;3.13;2.80;;;;;;;15.50;56.89;95047.00;4877963;29;20193;-84
2022/10/31 00:45:15;;;;;;;5.47;3.43;;;;;;;15.89;56.89;95110.06;4882373;29;20204;-86
2022/10/31 00:47:42;;;;;;;2.90;2.63;;;;;;;15.88;56.84;95113.63;4887907;29;20197;-85
2022/10/31 00:50:09;;;;;;;4.47;2.80;;;;;;;15.88;56.80;95105.91;4886573;29;20768;-84
2022/10/31 00:52:37;;;;;;;3.80;2.70;;;;;;;15.58;57.06;95059.09;4878191;29;20881;-85
2022/10/31 00:55:04;;;;;;;3.30;3.00;;;;;;;15.85;56.89;95101.88;4877631;29;20193;-87
2022/10/31 00:57:31;;;;;;;2.97;2.60;;;;;;;15.78;57.20;95099.13;4878142;29;20223;-85
2022/10/31 00:59:58;;;;;;;3.07;2.77;;;;;;;15.85;57.22;95107.03;4878099;29;20689;-86
2022/10/31 01:02:26;;;;;;;3.73;2.80;;;;;;;15.85;56.98;95109.63;4877868;29;20217;-86
2022/10/31 01:04:53;;;;;;;3.67;2.90;;;;;;;15.84;56.94;95110.56;4878581;29;20585;-87
2022/10/31 01:07:23;;;;;;;3.57;2.80;;;;;;;15.50;57.14;95054.75;4877600;29;20696;-85
2022/10/31 01:09:50;;;;;;;3.30;2.97;;;;;;;15.77;57.10;95096.72;4877995;29;20244;-86
2022/10/31 01:12:17;;;;;;;3.53;2.87;;;;;;;15.78;57.28;95101.69;4877632;29;20257;-86
2022/10/31 01:14:45;;;;;;;3.43;2.80;;;;;;;15.83;57.22;95110.72;4877500;29;20205;-83
2022/10/31 01:17:12;;;;;;;3.97;2.83;;;;;;;15.66;57.24;95092.66;4858571;29;20635;-85
2022/10/31 01:19:40;;;;;;;5.40;2.70;;;;;;;15.72;56.99;95098.97;4858520;29;20641;-84
2022/10/31 01:22:07;;;;;;;3.20;2.70;;;;;;;15.59;57.23;95083.94;4859014;29;20182;-84
2022/10/31 01:24:34;;;;;;;4.43;2.80;;;;;;;15.81;57.23;95123.78;4857742;29;20202;-84
2022/10/31 01:27:01;;;;;;;5.33;2.80;;;;;;;15.73;57.21;95113.47;4858392;29;20201;-86
2022/10/31 01:29:28;;;;;;;4.30;3.23;;;;;;;15.82;57.21;95120.25;4856834;29;20225;-84
2022/10/31 01:31:55;;;;;;;3.67;2.80;;;;;;;15.50;57.23;95066.81;4858324;29;20202;-83
2022/10/31 01:34:22;;;;;;;3.80;2.73;;;;;;;15.68;57.18;95090.72;4858146;29;20194;-84
2022/10/31 01:36:51;;;;;;;3.20;2.60;;;;;;;15.72;57.35;95101.53;4858364;29;20210;-85
2022/10/31 01:39:19;;;;;;;4.80;3.30;;;;;;;15.56;57.12;95064.41;4858256;29;20293;-86
2022/10/31 01:41:48;;;;;;;3.20;2.90;;;;;;;15.57;57.22;95063.44;4858573;29;20632;-84
2022/10/31 01:44:52;;;;;;;3.63;3.00;;;;;;;15.96;57.25;95119.59;4859102;29;20285;-85
2022/10/31 01:47:26;;;;;;;3.23;2.53;;;;;;;15.90;57.12;95116.88;4858713;29;20280;-86
2022/10/31 01:49:57;;;;;;;3.77;2.77;;;;;;;15.96;57.21;95117.03;4858302;29;20220;-84
2022/10/31 01:52:29;;;;;;;3.47;3.00;;;;;;;16.02;57.44;95123.34;4859234;29;20202;-84
2022/10/31 01:55:01;;;;;;;4.97;3.03;;;;;;;15.97;57.47;95116.06;4859791;29;20692;-86
2022/10/31 01:57:29;;;;;;;5.13;2.90;;;;;;;16.05;57.24;95117.84;4861425;29;20220;-84
2022/10/31 02:00:00;;;;;;;4.57;2.90;;;;;;;15.95;57.29;95099.94;4865577;29;20194;-84
2022/10/31 02:02:29;;;;;;;4.77;2.60;;;;;;;16.14;57.28;95126.38;4865390;29;20197;-84
2022/10/31 02:04:57;;;;;;;4.00;3.17;;;;;;;16.01;57.24;95104.44;4872103;29;20674;-83
2022/10/31 02:07:28;;;;;;;4.10;3.10;;;;;;;15.93;57.31;95083.00;4877109;29;20273;-84
2022/10/31 02:09:58;;;;;;;3.83;3.13;;;;;;;16.20;57.42;95123.97;4878928;29;20238;-84
2022/10/31 02:12:26;;;;;;;3.97;2.80;;;;;;;16.14;57.19;95106.53;4868793;29;20800;-86
2022/10/31 02:14:53;;;;;;;4.43;2.60;;;;;;;16.21;57.25;95104.13;4863422;29;20210;-85
2022/10/31 02:17:20;;;;;;;6.37;3.17;;;;;;;15.95;57.25;95068.19;4882226;29;20185;-85
2022/10/31 02:19:57;;;;;;;4.53;2.87;;;;;;;16.29;57.46;95119.63;4882388;29;20205;-86
2022/10/31 02:22:31;;;;;;;4.60;2.90;;;;;;;16.31;57.35;95123.63;4885178;29;20201;-83
2022/10/31 02:25:12;;;;;;;4.83;3.10;;;;;;;16.33;57.38;95117.53;4897794;29;20201;-84
2022/10/31 02:28:02;;;;;;;5.23;3.40;;;;;;;16.30;57.41;95124.63;4898572;29;20200;-85
2022/10/31 02:30:37;;;;;;;3.93;3.00;;;;;;;16.34;57.41;95140.59;4890759;29;20239;-83
2022/10/31 02:33:24;;;;;;;4.13;3.00;;;;;;;16.33;57.58;95136.41;4883559;29;20261;-84
2022/10/31 02:36:01;;;;;;;3.47;3.17;;;;;;;16.36;57.29;95141.22;4883282;29;20265;-84
2022/10/31 02:38:39;;;;;;;3.93;2.90;;;;;;;16.12;57.45;95090.44;4885402;29;20665;-87
2022/10/31 02:41:16;;;;;;;7.33;3.57;;;;;;;16.37;57.46;95142.84;4885875;29;20201;-85
2022/10/31 02:43:55;;;;;;;6.17;3.63;;;;;;;16.29;57.54;95129.94;4899351;29;20203;-84
2022/10/31 02:46:28;;;;;;;4.20;3.03;;;;;;;16.39;57.50;95137.53;4871816;29;20194;-84
2022/10/31 02:49:02;;;;;;;5.13;3.50;;;;;;;16.26;57.69;95130.25;4880274;29;20225;-83
2022/10/31 02:51:29;;;;;;;4.57;3.37;;;;;;;16.17;57.68;95108.00;4878384;29;20232;-84
2022/10/31 02:53:56;;;;;;;3.43;3.00;;;;;;;16.25;57.56;95123.50;4884585;29;20204;-86
2022/10/31 02:56:23;;;;;;;7.10;3.63;;;;;;;16.31;57.63;95133.16;4896366;29;20197;-84
2022/10/31 02:58:53;;;;;;;4.77;3.43;;;;;;;16.42;57.67;95160.44;4894496;29;20207;-83
2022/10/31 03:01:37;;;;;;;5.50;3.63;;;;;;;16.43;57.75;95154.28;4888011;29;20507;-85
2022/10/31 03:04:24;;;;;;;3.80;3.17;;;;;;;16.33;57.58;95133.81;4883393;29;20227;-84
2022/10/31 03:06:58;;;;;;;5.97;3.77;;;;;;;16.43;57.71;95149.13;4873633;29;20200;-86
2022/10/31 03:09:32;;;;;;;4.27;3.20;;;;;;;16.40;58.00;95152.03;4878545;29;20224;-84
2022/10/31 03:12:05;;;;;;;7.03;3.57;;;;;;;16.44;57.64;95163.66;4880089;29;20676;-86
2022/10/31 03:14:44;;;;;;;5.10;3.63;;;;;;;16.26;57.76;95138.81;4880339;29;20662;-84
2022/10/31 03:17:18;;;;;;;4.47;3.13;;;;;;;16.44;57.60;95161.88;4879559;29;20232;-85
2022/10/31 03:19:50;;;;;;;5.97;3.40;;;;;;;16.38;57.78;95147.03;4880588;29;20228;-84
2022/10/31 03:22:20;;;;;;;3.53;3.20;;;;;;;16.44;57.85;95155.91;4881474;29;20218;-86
2022/10/31 03:24:49;;;;;;;6.10;3.47;;;;;;;16.43;57.89;95154.28;4881266;29;20216;-87
2022/10/31 03:27:20;;;;;;;5.27;3.87;;;;;;;16.43;57.85;95165.44;4879996;29;20648;-87
2022/10/31 03:29:49;;;;;;;4.83;3.27;;;;;;;16.26;57.80;95138.00;4879656;29;20229;-87
2022/10/31 03:32:21;;;;;;;4.83;3.23;;;;;;;16.36;57.97;95156.69;4879277;29;20679;-86
2022/10/31 03:34:52;;;;;;;4.83;3.13;;;;;;;16.40;57.96;95167.53;4879756;29;20201;-86
2022/10/31 03:37:21;;;;;;;3.80;3.27;;;;;;;16.12;58.05;95125.75;4881207;29;20185;-85
2022/10/31 03:39:51;;;;;;;6.67;3.53;;;;;;;16.39;58.01;95168.50;4880532;29;20208;-86
2022/10/31 03:42:22;;;;;;;4.30;3.47;;;;;;;16.36;58.03;95172.19;4880262;29;20190;-82
2022/10/31 03:44:54;;;;;;;5.53;3.53;;;;;;;16.24;58.31;95163.97;4882139;29;20239;-85
2022/10/31 03:47:21;;;;;;;7.37;4.20;;;;;;;16.35;58.04;95180.09;4880347;29;20284;-84
2022/10/31 03:49:50;;;;;;;4.13;3.23;;;;;;;16.24;58.00;95158.03;4863876;29;20311;-85
2022/10/31 03:52:24;;;;;;;4.53;3.57;;;;;;;16.17;58.13;95154.47;4882869;29;20189;-84
2022/10/31 03:54:55;;;;;;;4.47;3.50;;;;;;;16.29;58.10;95176.41;4883429;29;20268;-84
2022/10/31 03:57:29;;;;;;;6.43;3.90;;;;;;;16.27;58.25;95178.31;4864868;29;20201;-84
2022/10/31 04:00:01;;;;;;;3.83;3.37;;;;;;;16.23;58.33;95185.56;4881607;29;20247;-85
2022/10/31 04:02:33;;;;;;;4.03;3.20;;;;;;;15.96;58.31;95147.19;4882802;29;20201;-84
2022/10/31 04:05:03;;;;;;;5.40;4.03;;;;;;;16.20;58.50;95185.13;4882541;29;20208;-86
2022/10/31 04:07:37;;;;;;;4.60;3.80;;;;;;;15.94;58.41;95149.94;4882896;29;21175;-86
2022/10/31 04:10:09;;;;;;;6.23;3.83;;;;;;;16.14;58.47;95183.97;4884972;29;20239;-84
2022/10/31 04:12:38;;;;;;;7.50;3.70;;;;;;;16.12;58.55;95185.09;4895834;29;20207;-84
2022/10/31 04:15:09;;;;;;;6.27;4.13;;;;;;;16.05;58.59;95180.56;4895811;29;20256;-83
2022/10/31 04:17:40;;;;;;;4.10;3.20;;;;;;;16.10;58.60;95192.97;4896239;29;20195;-85
2022/10/31 04:20:09;;;;;;;6.47;3.63;;;;;;;16.09;58.73;95188.00;4895317;29;20200;-85
2022/10/31 04:22:37;;;;;;;4.53;3.60;;;;;;;15.90;58.61;95161.53;4895881;29;20655;-85
2022/10/31 04:25:04;;;;;;;6.10;4.27;;;;;;;15.86;58.72;95162.00;4894260;29;20207;-84
2022/10/31 04:27:31;;;;;;;5.40;3.83;;;;;;;16.09;58.69;95198.31;4895408;29;20193;-83
2022/10/31 04:29:59;;;;;;;9.83;3.93;;;;;;;16.09;58.62;95195.72;4895387;29;20236;-86
2022/10/31 04:32:26;;;;;;;5.73;3.90;;;;;;;16.09;58.58;95193.16;4887014;29;20260;-85
2022/10/31 04:34:54;;;;;;;5.87;3.93;;;;;;;15.82;58.72;95158.94;4885066;29;20197;-89
2022/10/31 04:37:23;;;;;;;4.93;3.73;;;;;;;16.07;58.80;95195.91;4888318;29;20197;-87
2022/10/31 04:39:49;;;;;;;5.43;4.27;;;;;;;16.07;58.81;95198.47;4890286;29;20223;-84
2022/10/31 04:42:16;;;;;;;6.70;4.27;;;;;;;16.02;58.81;95193.81;4891465;29;20233;-83
2022/10/31 04:44:43;;;;;;;4.33;3.23;;;;;;;16.05;58.80;95197.81;4885549;29;20201;-84
2022/10/31 04:47:10;;;;;;;5.87;3.93;;;;;;;16.04;58.84;95196.22;4884625;29;20205;-85
2022/10/31 04:49:37;;;;;;;7.03;4.23;;;;;;;16.02;58.99;95196.38;4879219;29;20193;-85
2022/10/31 04:52:04;;;;;;;6.47;3.80;;;;;;;15.82;58.81;95171.81;4878492;29;20193;-84
2022/10/31 04:54:32;;;;;;;6.70;3.90;;;;;;;16.02;58.96;95203.31;4878409;29;20204;-86
2022/10/31 04:56:59;;;;;;;6.30;4.33;;;;;;;15.96;59.00;95198.78;4882458;29;20201;-85
2022/10/31 04:59:26;;;;;;;5.73;4.07;;;;;;;15.90;59.01;95192.47;4883572;29;20197;-83
2022/10/31 05:01:53;;;;;;;6.57;4.83;;;;;;;15.98;59.12;95207.19;4881189;29;20205;-84
2022/10/31 05:04:20;;;;;;;6.37;4.37;;;;;;;15.89;59.13;95201.19;4879389;29;20207;-84
2022/10/31 05:06:47;;;;;;;6.43;4.30;;;;;;;15.65;59.14;95167.59;4879336;29;20205;-82
2022/10/31 05:09:13;;;;;;;7.63;4.33;;;;;;;15.96;59.13;95217.63;4887728;29;20287;-85
2022/10/31 05:11:42;;;;;;;5.90;4.17;;;;;;;15.97;59.12;95223.59;4887658;29;20236;-84
2022/10/31 05:14:16;;;;;;;7.17;4.60;;;;;;;15.59;59.29;95165.59;4885913;29;20691;-84
2022/10/31 05:16:43;;;;;;;5.87;5.10;;;;;;;15.98;59.23;95232.97;4884466;29;20239;-87
2022/10/31 05:19:10;;;;;;;5.77;4.40;;;;;;;15.85;59.26;95215.38;4883421;29;20201;-84
2022/10/31 05:21:37;;;;;;;7.37;4.53;;;;;;;15.98;59.08;95233.78;4886212;29;20672;-88
2022/10/31 05:24:05;;;;;;;6.97;4.73;;;;;;;15.99;59.22;95237.16;4882908;29;20261;-85
2022/10/31 05:26:31;;;;;;;7.47;4.70;;;;;;;15.99;59.30;95232.00;4880684;29;20676;-85
2022/10/31 05:29:00;;;;;;;6.80;5.03;;;;;;;15.98;59.15;95227.81;4883812;29;20600;-86
2022/10/31 05:31:27;;;;;;;6.00;4.43;;;;;;;15.93;59.27;95219.72;4882196;29;20266;-84
2022/10/31 05:33:54;;;;;;;6.77;4.73;;;;;;;15.96;59.24;95235.69;4882842;29;20201;-87
2022/10/31 05:36:21;;;;;;;7.00;5.03;;;;;;;15.95;59.47;95234.09;4888504;29;20201;-85
2022/10/31 05:38:48;;;;;;;5.67;4.33;;;;;;;15.94;59.46;95245.38;4890944;29;20674;-83
2022/10/31 05:41:14;;;;;;;5.00;4.50;;;;;;;15.93;59.50;95243.75;4889307;29;20208;-84
2022/10/31 05:43:41;;;;;;;10.97;6.13;;;;;;;15.94;59.60;95247.16;4888570;29;20189;-84
2022/10/31 05:46:11;;;;;;;7.67;4.97;;;;;;;15.93;59.70;95243.75;4889368;29;20569;-85
2022/10/31 05:48:38;;;;;;;6.80;5.07;;;;;;;15.95;59.51;95252.13;4887755;29;20197;-86
2022/10/31 05:51:05;;;;;;;9.07;5.07;;;;;;;15.87;59.79;95234.06;4889610;29;20244;-89
2022/10/31 05:53:32;;;;;;;6.50;5.10;;;;;;;15.89;59.63;95233.88;4895341;29;20286;-88
2022/10/31 05:55:58;;;;;;;9.17;5.73;;;;;;;16.00;59.55;95249.88;4892718;29;20193;-88
2022/10/31 05:58:25;;;;;;;9.57;5.10;;;;;;;16.06;59.69;95256.19;4894378;29;20235;-84
2022/10/31 06:00:53;;;;;;;8.03;5.30;;;;;;;16.13;59.55;95258.97;4885887;29;20197;-84
2022/10/31 06:03:22;;;;;;;7.53;4.97;;;;;;;16.24;59.63;95258.66;4888070;29;20217;-81
2022/10/31 06:05:48;;;;;;;7.87;4.23;;;;;;;16.64;90.65;95270.00;4886429;29;20224;-81
2022/10/31 06:08:16;;;;;;;12.00;4.17;;;;;;;17.11;95.00;95275.34;4887749;29;20288;-83
2022/10/31 06:10:45;;;;;;;7.57;5.33;;;;;;;17.53;92.29;95254.44;4885959;29;20229;-82
2022/10/31 06:13:12;;;;;;;12.23;5.87;;;;;;;17.97;86.39;95235.84;4886994;29;20201;-84
2022/10/31 06:15:38;;;;;;;10.53;5.13;;;;;;;18.71;82.20;95279.44;4885766;29;20237;-84
2022/10/31 06:18:09;;;;;;;7.97;5.20;;;;;;;19.13;79.16;95265.13;4884149;29;20204;-82
2022/10/31 06:20:39;;;;;;;12.13;5.77;;;;;;;19.68;76.90;95275.16;4882820;29;20222;-83
2022/10/31 06:23:08;;;;;;;12.60;5.87;;;;;;;20.13;74.80;95280.31;4887957;29;20197;-85
2022/10/31 06:25:38;;;;;;;8.97;5.57;;;;;;;20.48;72.89;95270.94;4886749;29;20268;-81
2022/10/31 06:28:06;;;;;;;10.80;5.50;;;;;;;20.98;71.16;95288.19;4885728;29;20193;-80
2022/10/31 06:30:34;;;;;;;10.73;5.88;;;;;;;21.40;69.88;95296.94;4880301;29;20236;-81
2022/10/31 06:33:05;;;;;;;12.98;5.85;;;;;;;21.68;68.81;95278.72;4883803;29;20200;-83
2022/10/31 06:35:35;;;;;;;7.95;4.88;;;;;;;22.11;67.76;95283.72;4887338;29;20190;-80
2022/10/31 06:38:03;;;;;;;10.57;5.53;;;;;;;22.51;66.47;95286.47;4895895;29;20200;-84
2022/10/31 06:40:30;;;;;;;17.10;9.63;;;;;;;22.85;66.12;95295.16;4883487;29;20227;-84
2022/10/31 06:42:58;;;;;;;17.45;11.25;;;;;;;23.22;65.72;95306.84;4880882;29;20728;-84
2022/10/31 06:45:27;;;;;;;14.63;10.13;;;;;;;23.48;64.59;95306.81;4896578;29;20195;-85
2022/10/31 06:47:55;;;;;;;18.45;8.68;;;;;;;23.86;62.86;95303.56;4890066;29;20204;-85
2022/10/31 06:50:23;;;;;;;12.00;6.95;;;;;;;24.24;61.30;95287.16;4870631;29;20248;-85
2022/10/31 06:52:55;;;;;;;19.38;7.90;;;;;;;24.74;60.34;95282.09;4859872;29;20224;-84
2022/10/31 06:55:25;;;;;;;14.55;7.57;;;;;;;25.22;60.50;95307.78;4857522;29;20945;-83
2022/10/31 06:57:56;;;;;;;12.13;6.78;;;;;;;25.40;60.08;95307.00;4859236;29;20276;-85
2022/10/31 07:00:23;;;;;;;13.98;6.90;;;;;;;25.39;59.65;95284.44;4857553;29;20202;-84
2022/10/31 07:02:57;;;;;;;10.07;6.30;;;;;;;25.65;58.94;95310.41;4863490;29;20201;-84
2022/10/31 07:05:24;;;;;;;9.88;5.90;;;;;;;25.62;58.30;95302.97;4877636;29;20669;-83
2022/10/31 07:07:56;;;;;;;7.05;5.65;;;;;;;25.81;57.95;95313.50;4874535;29;20216;-83
2022/10/31 07:10:26;;;;;;;10.52;6.50;;;;;;;25.91;57.33;95312.00;4873059;29;20763;-82
2022/10/31 07:12:55;;;;;;;10.95;5.80;;;;;;;25.98;56.54;95311.91;4874854;29;20665;-80
2022/10/31 07:15:25;;;;;;;9.98;6.10;;;;;;;26.04;55.92;95318.91;4884624;29;20662;-85
2022/10/31 07:17:51;;;;;;;8.70;5.68;;;;;;;26.06;55.74;95311.63;4890088;29;20552;-85
2022/10/31 07:20:19;;;;;;;16.08;6.55;;;;;;;26.07;55.44;95305.34;4882401;29;20533;-84
2022/10/31 07:22:46;;;;;;;13.38;6.00;;;;;;;26.16;55.18;95301.41;4879655;29;20208;-85
2022/10/31 07:25:13;;;;;;;10.82;6.28;;;;;;;26.23;54.91;95303.97;4879662;29;20203;-83
2022/10/31 07:27:43;;;;;;;9.68;6.30;;;;;;;26.17;54.11;95281.25;4893205;29;20747;-87
2022/10/31 07:30:12;;;;;;;12.98;6.53;;;;;;;26.36;54.05;95295.94;4891314;29;20216;-89
2022/10/31 07:32:42;;;;;;;13.50;6.90;;;;;;;26.12;53.34;95249.63;4893779;29;20200;-86
2022/10/31 07:35:11;;;;;;;11.43;7.22;;;;;;;26.43;52.87;95293.22;4899793;29;20574;-88
2022/10/31 07:37:40;;;;;;;9.80;6.43;;;;;;;26.45;52.45;95297.25;4891332;29;20208;-87
2022/10/31 07:40:16;;;;;;;10.02;6.15;;;;;;;26.28;51.89;95264.75;4889368;29;20224;-89
2022/10/31 07:42:47;;;;;;;8.23;6.13;;;;;;;26.30;52.14;95267.19;4885014;29;20197;-87
2022/10/31 07:45:16;;;;;;;9.05;6.53;;;;;;;26.22;51.93;95250.72;4886542;29;20201;-92
2022/10/31 07:47:44;;;;;;;10.93;5.65;;;;;;;26.46;51.71;95292.81;4889761;29;20212;-90
2022/10/31 07:50:14;;;;;;;10.50;6.97;;;;;;;26.26;51.74;95267.63;4893425;29;20205;-89
2022/10/31 07:55:45;;;;;;;11.75;7.53;;;;;;;26.25;51.11;95278.31;4832020;29;20214;-93
2022/10/31 07:58:18;;;;;;;12.93;6.85;;;;;;;26.16;51.14;95290.91;4838387;29;20215;-91
2022/10/31 08:00:54;;;;;;;10.23;6.90;;;;;;;26.01;51.91;95293.94;4843053;29;20219;-83
2022/10/31 08:03:27;;;;;;;10.88;6.80;;;;;;;26.03;51.98;95291.06;4841249;29;20203;-85
2022/10/31 08:06:04;;;;;;;8.70;6.63;;;;;;;25.94;51.71;95292.38;4842033;29;20214;-88
2022/10/31 08:08:32;;;;;;;12.73;7.63;;;;;;;25.77;52.42;95297.41;4840165;29;20257;-91
2022/10/31 08:10:59;;;;;;;11.75;6.75;;;;;;;25.36;52.47;95259.50;4838973;29;20502;-90
2022/10/31 08:13:29;;;;;;;9.95;6.78;;;;;;;25.17;52.48;95253.44;4835962;29;20203;-90
2022/10/31 08:16:03;;;;;;;12.18;7.10;;;;;;;25.07;52.82;95250.44;4845653;29;20236;-90
2022/10/31 08:18:33;;;;;;;9.60;6.05;;;;;;;25.14;53.25;95282.66;4843292;29;20194;-91
2022/10/31 08:21:01;;;;;;;11.32;6.38;;;;;;;24.94;53.20;95267.06;4818656;29;20237;-92
2022/10/31 08:23:28;;;;;;;9.70;6.32;;;;;;;24.82;53.50;95263.53;4817135;29;20229;-91
2022/10/31 08:25:55;;;;;;;14.50;7.10;;;;;;;24.93;53.23;95298.69;4829444;29;20218;-92
2022/10/31 08:28:22;;;;;;;8.23;6.57;;;;;;;24.65;53.08;95265.03;4835714;29;20270;-93
2022/10/31 08:30:53;;;;;;;11.38;7.05;;;;;;;24.76;52.45;95293.16;4839636;29;20199;-91
2022/10/31 08:33:25;;;;;;;14.55;7.72;;;;;;;24.68;52.51;95293.41;4897744;29;20200;-94
2022/10/31 08:35:55;;;;;;;12.57;7.50;;;;;;;24.45;51.99;95263.34;4902300;29;20196;-91
2022/10/31 08:38:45;;;;;;;11.57;6.80;;;;;;;24.53;51.89;95294.50;4877539;29;20201;-84
2022/10/31 08:41:15;;;;;;;10.43;7.30;;;;;;;24.43;51.55;95282.88;4891951;29;20212;-88
2022/10/31 08:43:44;;;;;;;14.50;6.40;;;;;;;24.34;51.83;95278.88;4898148;29;20208;-86
2022/10/31 08:46:18;;;;;;;12.82;6.95;;;;;;;24.35;52.59;95286.50;4892685;29;20245;-85
2022/10/31 08:51:48;;;;;;;14.80;6.88;;;;;;;24.14;52.75;95273.75;4892848;29;20217;-87
2022/10/31 08:54:19;;;;;;;9.02;6.32;;;;;;;23.89;53.26;95245.69;4886408;29;20219;-84
2022/10/31 08:56:49;;;;;;;8.38;5.38;;;;;;;24.16;53.68;95293.44;4906063;29;20208;-85
2022/10/31 08:59:19;;;;;;;15.68;6.40;;;;;;;24.14;53.55;95292.03;4907778;29;20180;-85
2022/10/31 09:01:57;;;;;;;11.57;6.05;;;;;;;24.10;53.55;95288.25;4888583;29;20205;-91
2022/10/31 09:04:24;;;;;;;7.97;6.13;;;;;;;24.08;53.89;95292.84;4892706;29;20208;-88
2022/10/31 09:09:32;;;;;;;9.05;6.00;;;;;;;24.03;54.19;95288.25;4899778;29;20207;-90
2022/10/31 09:12:02;;;;;;;10.38;6.60;;;;;;;23.56;54.18;95218.84;4905465;29;20270;-86
2022/10/31 09:14:30;;;;;;;8.15;6.10;;;;;;;24.00;54.61;95293.88;4890683;29;20207;-88
2022/10/31 09:17:01;;;;;;;10.93;6.25;;;;;;;23.98;54.75;95282.84;4902990;29;20319;-89
2022/10/31 09:19:30;;;;;;;9.07;6.03;;;;;;;23.96;54.82;95280.44;4897208;29;20565;-90
2022/10/31 09:21:58;;;;;;;7.28;5.50;;;;;;;23.98;54.58;95282.84;4888287;29;20200;-89
2022/10/31 09:24:25;;;;;;;9.38;6.20;;;;;;;23.96;54.47;95290.91;4890925;29;20196;-88
2022/10/31 09:26:52;;;;;;;11.55;6.07;;;;;;;23.91;54.48;95275.00;4893463;29;20203;-90
2022/10/31 09:29:19;;;;;;;8.02;5.43;;;;;;;23.95;54.69;95273.59;4898987;29;20216;-92
2022/10/31 09:31:48;;;;;;;10.45;5.88;;;;;;;23.96;54.40;95274.41;4903721;29;20842;-92
2022/10/31 09:34:18;;;;;;;6.78;5.85;;;;;;;23.75;54.18;95239.72;4896198;29;20193;-84
2022/10/31 09:36:45;;;;;;;7.15;6.05;;;;;;;23.88;54.35;95259.78;4890496;29;20200;-86
2022/10/31 09:39:14;;;;;;;12.90;6.20;;;;;;;23.74;54.36;95238.09;4902214;29;20204;-94
2022/10/31 09:42:02;;;;;;;8.77;5.35;;;;;;;23.97;54.55;95276.81;4899516;29;20239;-87
2022/10/31 09:44:42;;;;;;;11.05;6.03;;;;;;;23.98;54.25;95278.41;4884493;29;20195;-85
2022/10/31 09:47:17;;;;;;;9.35;6.40;;;;;;;23.95;54.14;95265.75;4896222;29;20223;-87
2022/10/31 09:49:58;;;;;;;10.23;5.90;;;;;;;23.85;53.77;95254.16;4882885;29;20200;-85
2022/10/31 09:52:30;;;;;;;13.18;6.75;;;;;;;24.00;53.25;95268.56;4884941;29;20699;-87
2022/10/31 09:55:03;;;;;;;10.20;6.03;;;;;;;24.02;53.24;95265.75;4893770;29;20295;-86
2022/10/31 09:57:34;;;;;;;12.65;6.03;;;;;;;24.02;52.99;95273.59;4892372;29;20213;-91
2022/10/31 10:00:02;;;;;;;6.90;5.95;;;;;;;23.78;53.07;95225.44;4893728;29;20212;-92
2022/10/31 10:02:35;;;;;;;8.25;5.47;;;;;;;24.06;54.04;95266.16;4894143;29;20205;-85
2022/10/31 10:05:18;;;;;;;8.15;4.80;;;;;;;24.03;55.52;95259.50;4907115;29;20204;-87
2022/10/31 10:07:56;;;;;;;7.47;5.15;;;;;;;24.09;55.97;95260.47;4904056;29;20204;-86
2022/10/31 10:10:35;;;;;;;7.47;4.90;;;;;;;23.73;55.76;95201.75;4888229;29;20204;-84
2022/10/31 10:13:21;;;;;;;7.18;4.97;;;;;;;23.93;55.74;95219.97;4895667;29;20593;-87
2022/10/31 10:16:00;;;;;;;9.13;5.20;;;;;;;24.14;56.58;95250.22;4892667;29;20336;-88
2022/10/31 10:18:36;;;;;;;8.93;5.20;;;;;;;24.14;56.85;95253.63;4888927;29;20199;-86
2022/10/31 10:21:21;;;;;;;11.60;5.43;;;;;;;24.16;57.11;95248.19;4896058;29;20183;-86
2022/10/31 10:23:58;;;;;;;5.28;4.72;;;;;;;24.16;57.03;95242.97;4893676;29;20192;-87
2022/10/31 10:26:31;;;;;;;7.57;5.07;;;;;;;24.16;57.07;95237.75;4904965;29;20193;-86
2022/10/31 10:29:10;;;;;;;5.80;5.15;;;;;;;24.17;57.13;95239.34;4894380;29;20180;-85
2022/10/31 10:31:41;;;;;;;5.13;4.55;;;;;;;23.82;56.68;95177.00;4885011;29;20227;-87
2022/10/31 10:34:17;;;;;;;6.05;4.82;;;;;;;24.11;56.95;95216.66;4892039;29;20257;-88
2022/10/31 10:36:51;;;;;;;5.95;5.00;;;;;;;24.19;57.28;95227.69;4901479;29;20205;-86
2022/10/31 10:39:23;;;;;;;5.22;4.43;;;;;;;24.12;57.42;95199.97;4895072;29;20217;-83
2022/10/31 10:47:43;;;;;;;6.78;4.53;;;;;;;24.22;56.46;95210.75;4886993;29;20199;-88
2022/10/31 10:50:16;;;;;;;5.57;4.65;;;;;;;24.16;56.29;95196.72;4884641;29;20200;-92
2022/10/31 10:52:53;;;;;;;6.70;4.53;;;;;;;24.18;56.82;95199.13;4872154;29;20219;-88
2022/10/31 10:55:31;;;;;;;5.05;4.55;;;;;;;24.27;57.01;95205.72;4879003;29;20291;-87
2022/10/31 10:58:01;;;;;;;5.57;4.57;;;;;;;24.23;57.26;95199.31;4878644;29;20192;-85
2022/10/31 11:00:33;;;;;;;5.00;4.30;;;;;;;24.28;57.40;95208.13;4886232;29;20278;-89
2022/10/31 11:03:00;;;;;;;7.53;4.70;;;;;;;24.29;57.57;95204.47;4890439;29;20211;-88
2022/10/31 11:05:37;;;;;;;7.18;4.53;;;;;;;24.30;57.84;95205.28;4895726;29;20217;-89
2022/10/31 11:08:14;;;;;;;7.13;4.60;;;;;;;24.16;57.82;95178.44;4889351;29;20204;-94
2022/10/31 11:10:43;;;;;;;4.50;4.10;;;;;;;24.33;57.88;95201.47;4894877;29;20252;-87
2022/10/31 11:13:27;;;;;;;5.07;4.55;;;;;;;24.27;58.18;95187.44;4894407;29;20224;-94
2022/10/31 11:15:59;;;;;;;4.97;4.35;;;;;;;24.33;58.21;95194.41;4888755;29;20300;-89
2022/10/31 11:18:30;;;;;;;4.38;3.97;;;;;;;24.30;58.13;95189.59;4890576;29;20200;-86
2022/10/31 11:21:02;;;;;;;6.65;4.35;;;;;;;24.31;57.98;95186.00;4889648;29;20805;-89
2022/10/31 11:23:34;;;;;;;7.10;4.13;;;;;;;24.15;58.00;95157.75;4882754;29;20573;-88
2022/10/31 11:26:04;;;;;;;5.28;4.05;;;;;;;24.01;58.09;95133.50;4887865;29;20303;-86
2022/10/31 11:28:35;;;;;;;5.63;4.00;;;;;;;24.32;58.28;95182.38;4880749;29;20228;-83
2022/10/31 11:31:08;;;;;;;5.25;4.40;;;;;;;24.33;58.54;95181.34;4884023;29;20197;-92
2022/10/31 11:33:38;;;;;;;5.10;4.00;;;;;;;24.17;58.25;95151.28;4888746;29;20268;-89
2022/10/31 11:36:23;;;;;;;5.10;4.57;;;;;;;24.34;58.64;95172.47;4888696;29;20645;-80
2022/10/31 11:38:52;;;;;;;6.60;4.55;;;;;;;24.22;58.43;95158.47;4888121;29;20199;-84
2022/10/31 11:41:26;;;;;;;4.60;4.20;;;;;;;24.33;58.94;95175.31;4888410;29;20201;-94
2022/10/31 11:43:57;;;;;;;4.82;4.10;;;;;;;24.21;58.83;95152.44;4905373;29;20208;-95
2022/10/31 11:46:34;;;;;;;4.45;3.90;;;;;;;24.31;59.00;95172.91;4899427;29;20200;-91
2022/10/31 11:49:02;;;;;;;5.18;4.07;;;;;;;24.29;59.17;95170.50;4898342;29;20204;-92
2022/10/31 11:51:33;;;;;;;6.07;3.97;;;;;;;23.85;58.96;95094.81;4899225;29;20228;-89
2022/10/31 11:54:04;;;;;;;5.60;4.15;;;;;;;23.99;58.93;95112.00;4899645;29;20320;-91
2022/10/31 11:56:41;;;;;;;6.40;4.35;;;;;;;23.99;58.99;95112.00;4894745;29;20219;-89
2022/10/31 11:59:23;;;;;;;4.88;4.22;;;;;;;24.00;59.05;95105.75;4904498;29;20188;-88
2022/10/31 12:01:58;;;;;;;6.18;4.28;;;;;;;23.90;59.39;95097.59;4907329;29;20265;-90